sensor_id;sensor_type;location;lat;lon;timestamp;P1;durP1;ratioP1;P2;durP2;ratioP2
37877;SDS011;23715;53.652;8.516;2023-07-31T00:04:53;63.00;;;58.65;;
37877;SDS011;23715;53.652;8.516;2023-07-31T00:09:53;63.02;;;59.18;;
37877;SDS011;23715;53.652;8.516;2023-07-31T00:14:54;63.95;;;60.05;;
37877;SDS011;23715;53.652;8.516;2023-07-31T00:19:55;67.92;;;63.38;;
37877;SDS011;23715;53.652;8.516;2023-07-31T00:24:55;62.33;;;58.52;;
37877;SDS011;23715;53.652;8.516;2023-07-31T00:29:56;64.60;;;60.88;;
37877;SDS011;23715;53.652;8.516;2023-07-31T00:39:56;67.87;;;63.73;;
37877;SDS011;23715;53.652;8.516;2023-07-31T00:44:57;68.25;;;64.47;;
37877;SDS011;23715;53.652;8.516;2023-07-31T00:49:57;68.45;;;64.03;;
37877;SDS011;23715;53.652;8.516;2023-07-31T00:54:57;72.00;;;67.67;;
37877;SDS011;23715;53.652;8.516;2023-07-31T00:59:58;74.40;;;70.00;;
37877;SDS011;23715;53.652;8.516;2023-07-31T01:04:58;72.62;;;68.30;;
37877;SDS011;23715;53.652;8.516;2023-07-31T01:10:15;66.90;;;62.97;;
37877;SDS011;23715;53.652;8.516;2023-07-31T01:15:17;70.90;;;66.47;;
37877;SDS011;23715;53.652;8.516;2023-07-31T01:20:21;75.32;;;70.95;;
37877;SDS011;23715;53.652;8.516;2023-07-31T01:25:43;72.42;;;68.15;;
37877;SDS011;23715;53.652;8.516;2023-07-31T01:30:48;75.32;;;70.83;;
37877;SDS011;23715;53.652;8.516;2023-07-31T01:35:49;72.70;;;68.33;;
37877;SDS011;23715;53.652;8.516;2023-07-31T01:40:56;77.08;;;72.58;;
37877;SDS011;23715;53.652;8.516;2023-07-31T01:45:52;74.65;;;70.35;;
37877;SDS011;23715;53.652;8.516;2023-07-31T01:50:53;77.85;;;73.05;;
37877;SDS011;23715;53.652;8.516;2023-07-31T01:55:53;74.33;;;69.93;;
37877;SDS011;23715;53.652;8.516;2023-07-31T02:00:53;73.60;;;69.40;;
37877;SDS011;23715;53.652;8.516;2023-07-31T02:05:53;68.90;;;65.00;;
37877;SDS011;23715;53.652;8.516;2023-07-31T02:10:56;72.32;;;68.42;;
37877;SDS011;23715;53.652;8.516;2023-07-31T02:15:56;68.10;;;64.35;;
37877;SDS011;23715;53.652;8.516;2023-07-31T02:20:57;72.58;;;68.52;;
37877;SDS011;23715;53.652;8.516;2023-07-31T02:25:57;69.70;;;65.75;;
37877;SDS011;23715;53.652;8.516;2023-07-31T02:35:57;69.90;;;66.17;;
37877;SDS011;23715;53.652;8.516;2023-07-31T02:40:57;75.57;;;71.35;;
37877;SDS011;23715;53.652;8.516;2023-07-31T02:45:59;72.53;;;68.42;;
37877;SDS011;23715;53.652;8.516;2023-07-31T02:50:59;70.92;;;66.77;;
37877;SDS011;23715;53.652;8.516;2023-07-31T03:00:59;70.47;;;66.77;;
37877;SDS011;23715;53.652;8.516;2023-07-31T03:05:59;66.50;;;63.02;;
37877;SDS011;23715;53.652;8.516;2023-07-31T03:10:59;71.33;;;67.62;;
37877;SDS011;23715;53.652;8.516;2023-07-31T03:16:00;71.40;;;67.70;;
37877;SDS011;23715;53.652;8.516;2023-07-31T03:21:00;74.30;;;70.20;;
37877;SDS011;23715;53.652;8.516;2023-07-31T03:26:02;77.35;;;73.35;;
37877;SDS011;23715;53.652;8.516;2023-07-31T03:31:04;80.25;;;76.15;;
37877;SDS011;23715;53.652;8.516;2023-07-31T03:36:04;76.35;;;72.25;;
37877;SDS011;23715;53.652;8.516;2023-07-31T03:46:04;76.95;;;72.85;;
37877;SDS011;23715;53.652;8.516;2023-07-31T03:56:04;78.07;;;73.83;;
37877;SDS011;23715;53.652;8.516;2023-07-31T04:06:04;75.77;;;71.47;;
37877;SDS011;23715;53.652;8.516;2023-07-31T04:11:06;75.67;;;71.57;;
37877;SDS011;23715;53.652;8.516;2023-07-31T04:16:06;76.45;;;72.35;;
37877;SDS011;23715;53.652;8.516;2023-07-31T04:21:09;81.60;;;77.20;;
37877;SDS011;23715;53.652;8.516;2023-07-31T04:26:09;79.37;;;75.08;;
37877;SDS011;23715;53.652;8.516;2023-07-31T04:36:09;76.17;;;71.97;;
37877;SDS011;23715;53.652;8.516;2023-07-31T04:41:09;77.22;;;73.00;;
37877;SDS011;23715;53.652;8.516;2023-07-31T04:46:11;75.50;;;71.25;;
37877;SDS011;23715;53.652;8.516;2023-07-31T04:51:11;75.03;;;70.92;;
37877;SDS011;23715;53.652;8.516;2023-07-31T04:56:11;79.05;;;74.77;;
37877;SDS011;23715;53.652;8.516;2023-07-31T05:01:15;74.40;;;70.40;;
37877;SDS011;23715;53.652;8.516;2023-07-31T05:11:15;67.05;;;63.35;;
37877;SDS011;23715;53.652;8.516;2023-07-31T05:16:17;70.08;;;66.12;;
37877;SDS011;23715;53.652;8.516;2023-07-31T05:21:17;69.90;;;66.07;;
37877;SDS011;23715;53.652;8.516;2023-07-31T05:31:17;75.47;;;71.17;;
37877;SDS011;23715;53.652;8.516;2023-07-31T05:36:17;77.15;;;72.78;;
37877;SDS011;23715;53.652;8.516;2023-07-31T05:41:17;75.47;;;71.17;;
37877;SDS011;23715;53.652;8.516;2023-07-31T05:46:18;75.28;;;70.97;;
37877;SDS011;23715;53.652;8.516;2023-07-31T05:51:21;77.70;;;73.20;;
37877;SDS011;23715;53.652;8.516;2023-07-31T06:01:21;77.20;;;72.70;;
37877;SDS011;23715;53.652;8.516;2023-07-31T06:06:22;80.03;;;75.22;;
37877;SDS011;23715;53.652;8.516;2023-07-31T06:11:28;79.17;;;74.55;;
37877;SDS011;23715;53.652;8.516;2023-07-31T06:16:25;73.78;;;69.58;;
37877;SDS011;23715;53.652;8.516;2023-07-31T06:21:25;72.10;;;67.65;;
37877;SDS011;23715;53.652;8.516;2023-07-31T06:26:25;77.47;;;72.87;;
37877;SDS011;23715;53.652;8.516;2023-07-31T06:31:26;73.25;;;68.92;;
37877;SDS011;23715;53.652;8.516;2023-07-31T06:36:26;76.67;;;72.08;;
37877;SDS011;23715;53.652;8.516;2023-07-31T06:41:26;76.45;;;71.95;;
37877;SDS011;23715;53.652;8.516;2023-07-31T06:51:26;73.33;;;68.78;;
37877;SDS011;23715;53.652;8.516;2023-07-31T06:56:27;71.12;;;66.92;;
37877;SDS011;23715;53.652;8.516;2023-07-31T07:01:27;75.75;;;71.25;;
37877;SDS011;23715;53.652;8.516;2023-07-31T07:11:36;70.90;;;66.70;;
37877;SDS011;23715;53.652;8.516;2023-07-31T07:16:36;72.17;;;67.97;;
37877;SDS011;23715;53.652;8.516;2023-07-31T07:21:38;73.37;;;69.10;;
37877;SDS011;23715;53.652;8.516;2023-07-31T07:26:39;71.75;;;67.42;;
37877;SDS011;23715;53.652;8.516;2023-07-31T07:31:40;73.00;;;68.70;;
37877;SDS011;23715;53.652;8.516;2023-07-31T07:36:42;74.35;;;70.03;;
37877;SDS011;23715;53.652;8.516;2023-07-31T07:41:42;75.62;;;71.33;;
37877;SDS011;23715;53.652;8.516;2023-07-31T07:46:43;74.85;;;70.55;;
37877;SDS011;23715;53.652;8.516;2023-07-31T07:51:43;74.40;;;70.10;;
37877;SDS011;23715;53.652;8.516;2023-07-31T07:56:43;76.10;;;71.72;;
37877;SDS011;23715;53.652;8.516;2023-07-31T08:01:43;73.50;;;69.25;;
37877;SDS011;23715;53.652;8.516;2023-07-31T08:06:44;72.97;;;68.78;;
37877;SDS011;23715;53.652;8.516;2023-07-31T08:11:44;72.97;;;68.52;;
37877;SDS011;23715;53.652;8.516;2023-07-31T08:16:44;73.52;;;69.17;;
37877;SDS011;23715;53.652;8.516;2023-07-31T08:21:44;72.53;;;68.33;;
37877;SDS011;23715;53.652;8.516;2023-07-31T08:26:45;70.57;;;66.37;;
37877;SDS011;23715;53.652;8.516;2023-07-31T08:31:46;72.10;;;67.90;;
37877;SDS011;23715;53.652;8.516;2023-07-31T08:36:47;69.53;;;65.28;;
37877;SDS011;23715;53.652;8.516;2023-07-31T08:41:47;72.50;;;67.80;;
37877;SDS011;23715;53.652;8.516;2023-07-31T08:51:48;69.72;;;65.52;;
37877;SDS011;23715;53.652;8.516;2023-07-31T08:56:51;69.55;;;65.55;;
37877;SDS011;23715;53.652;8.516;2023-07-31T09:01:53;71.07;;;66.97;;
37877;SDS011;23715;53.652;8.516;2023-07-31T09:06:57;68.60;;;64.45;;
37877;SDS011;23715;53.652;8.516;2023-07-31T09:11:59;75.30;;;71.10;;
37877;SDS011;23715;53.652;8.516;2023-07-31T09:17:01;77.15;;;72.85;;
37877;SDS011;23715;53.652;8.516;2023-07-31T09:22:01;75.15;;;70.95;;
37877;SDS011;23715;53.652;8.516;2023-07-31T09:27:01;78.62;;;74.22;;
37877;SDS011;23715;53.652;8.516;2023-07-31T09:37:01;74.92;;;70.52;;
37877;SDS011;23715;53.652;8.516;2023-07-31T09:42:02;71.12;;;67.12;;
37877;SDS011;23715;53.652;8.516;2023-07-31T09:52:02;73.65;;;69.35;;
37877;SDS011;23715;53.652;8.516;2023-07-31T09:57:05;75.20;;;70.90;;
37877;SDS011;23715;53.652;8.516;2023-07-31T10:02:08;78.17;;;73.67;;
37877;SDS011;23715;53.652;8.516;2023-07-31T10:07:10;75.17;;;70.85;;
37877;SDS011;23715;53.652;8.516;2023-07-31T10:12:16;76.07;;;71.67;;
37877;SDS011;23715;53.652;8.516;2023-07-31T10:17:18;75.80;;;71.40;;
37877;SDS011;23715;53.652;8.516;2023-07-31T10:22:21;78.50;;;73.90;;
37877;SDS011;23715;53.652;8.516;2023-07-31T10:27:21;76.85;;;72.45;;
37877;SDS011;23715;53.652;8.516;2023-07-31T10:32:21;74.50;;;70.20;;
37877;SDS011;23715;53.652;8.516;2023-07-31T10:37:26;80.57;;;76.02;;
37877;SDS011;23715;53.652;8.516;2023-07-31T10:47:38;75.83;;;71.22;;
37877;SDS011;23715;53.652;8.516;2023-07-31T10:52:47;71.70;;;67.62;;
37877;SDS011;23715;53.652;8.516;2023-07-31T10:57:48;74.75;;;70.55;;
37877;SDS011;23715;53.652;8.516;2023-07-31T11:08:15;75.52;;;70.57;;
37877;SDS011;23715;53.652;8.516;2023-07-31T11:13:17;78.80;;;73.80;;
37877;SDS011;23715;53.652;8.516;2023-07-31T11:18:18;73.83;;;69.10;;
37877;SDS011;23715;53.652;8.516;2023-07-31T11:23:22;75.45;;;70.52;;
37877;SDS011;23715;53.652;8.516;2023-07-31T11:28:23;76.85;;;72.00;;
37877;SDS011;23715;53.652;8.516;2023-07-31T11:33:23;71.95;;;67.20;;
37877;SDS011;23715;53.652;8.516;2023-07-31T11:43:25;62.90;;;58.97;;
37877;SDS011;23715;53.652;8.516;2023-07-31T11:48:27;61.65;;;57.48;;
37877;SDS011;23715;53.652;8.516;2023-07-31T11:53:49;58.92;;;55.12;;
37877;SDS011;23715;53.652;8.516;2023-07-31T12:03:53;63.70;;;59.55;;
37877;SDS011;23715;53.652;8.516;2023-07-31T12:09:00;62.33;;;58.15;;
37877;SDS011;23715;53.652;8.516;2023-07-31T12:14:04;57.35;;;53.50;;
37877;SDS011;23715;53.652;8.516;2023-07-31T12:24:06;60.10;;;56.18;;
37877;SDS011;23715;53.652;8.516;2023-07-31T12:29:06;58.95;;;55.25;;
37877;SDS011;23715;53.652;8.516;2023-07-31T12:34:16;59.63;;;55.48;;
37877;SDS011;23715;53.652;8.516;2023-07-31T12:39:16;58.83;;;54.93;;
37877;SDS011;23715;53.652;8.516;2023-07-31T12:44:17;58.08;;;54.18;;
37877;SDS011;23715;53.652;8.516;2023-07-31T12:49:17;58.35;;;54.65;;
37877;SDS011;23715;53.652;8.516;2023-07-31T12:54:17;59.00;;;55.20;;
37877;SDS011;23715;53.652;8.516;2023-07-31T12:59:17;58.60;;;54.42;;
37877;SDS011;23715;53.652;8.516;2023-07-31T13:04:18;57.33;;;53.83;;
37877;SDS011;23715;53.652;8.516;2023-07-31T13:14:19;57.80;;;54.10;;
37877;SDS011;23715;53.652;8.516;2023-07-31T13:19:22;56.90;;;53.17;;
37877;SDS011;23715;53.652;8.516;2023-07-31T13:24:23;58.42;;;54.63;;
37877;SDS011;23715;53.652;8.516;2023-07-31T13:29:23;60.03;;;55.92;;
37877;SDS011;23715;53.652;8.516;2023-07-31T13:34:23;59.40;;;55.60;;
37877;SDS011;23715;53.652;8.516;2023-07-31T13:39:24;64.15;;;60.08;;
37877;SDS011;23715;53.652;8.516;2023-07-31T13:44:24;62.58;;;58.68;;
37877;SDS011;23715;53.652;8.516;2023-07-31T13:49:25;62.25;;;58.40;;
37877;SDS011;23715;53.652;8.516;2023-07-31T13:54:25;65.35;;;61.28;;
37877;SDS011;23715;53.652;8.516;2023-07-31T13:59:27;67.47;;;63.28;;
37877;SDS011;23715;53.652;8.516;2023-07-31T14:04:28;71.62;;;67.32;;
37877;SDS011;23715;53.652;8.516;2023-07-31T14:14:29;75.32;;;70.83;;
37877;SDS011;23715;53.652;8.516;2023-07-31T14:19:31;72.95;;;68.55;;
37877;SDS011;23715;53.652;8.516;2023-07-31T14:29:31;78.80;;;74.10;;
37877;SDS011;23715;53.652;8.516;2023-07-31T14:34:31;76.90;;;72.32;;
37877;SDS011;23715;53.652;8.516;2023-07-31T14:39:32;82.17;;;77.17;;
37877;SDS011;23715;53.652;8.516;2023-07-31T14:44:32;82.42;;;77.42;;
37877;SDS011;23715;53.652;8.516;2023-07-31T14:49:33;79.07;;;74.20;;
37877;SDS011;23715;53.652;8.516;2023-07-31T14:54:33;79.82;;;74.97;;
37877;SDS011;23715;53.652;8.516;2023-07-31T14:59:34;77.85;;;73.02;;
37877;SDS011;23715;53.652;8.516;2023-07-31T15:04:35;73.57;;;68.87;;
37877;SDS011;23715;53.652;8.516;2023-07-31T15:09:35;80.57;;;75.70;;
37877;SDS011;23715;53.652;8.516;2023-07-31T15:14:38;82.85;;;77.85;;
37877;SDS011;23715;53.652;8.516;2023-07-31T15:19:38;78.25;;;73.35;;
37877;SDS011;23715;53.652;8.516;2023-07-31T15:29:38;79.20;;;74.30;;
37877;SDS011;23715;53.652;8.516;2023-07-31T15:34:39;76.75;;;72.00;;
37877;SDS011;23715;53.652;8.516;2023-07-31T15:44:38;76.87;;;72.05;;
37877;SDS011;23715;53.652;8.516;2023-07-31T15:54:39;78.00;;;72.95;;
37877;SDS011;23715;53.652;8.516;2023-07-31T15:59:39;79.15;;;74.15;;
37877;SDS011;23715;53.652;8.516;2023-07-31T16:04:39;82.75;;;77.72;;
37877;SDS011;23715;53.652;8.516;2023-07-31T16:09:40;84.55;;;79.25;;
37877;SDS011;23715;53.652;8.516;2023-07-31T16:14:40;81.02;;;76.02;;
37877;SDS011;23715;53.652;8.516;2023-07-31T16:19:40;75.65;;;70.95;;
37877;SDS011;23715;53.652;8.516;2023-07-31T16:24:45;76.80;;;72.00;;
37877;SDS011;23715;53.652;8.516;2023-07-31T16:29:45;74.20;;;69.45;;
37877;SDS011;23715;53.652;8.516;2023-07-31T16:34:45;77.08;;;72.17;;
37877;SDS011;23715;53.652;8.516;2023-07-31T16:39:46;84.60;;;79.30;;
37877;SDS011;23715;53.652;8.516;2023-07-31T16:44:48;80.47;;;75.47;;
37877;SDS011;23715;53.652;8.516;2023-07-31T16:49:49;76.57;;;71.65;;
37877;SDS011;23715;53.652;8.516;2023-07-31T16:54:49;77.10;;;72.00;;
37877;SDS011;23715;53.652;8.516;2023-07-31T16:59:50;78.37;;;73.25;;
37877;SDS011;23715;53.652;8.516;2023-07-31T17:04:51;77.65;;;72.85;;
37877;SDS011;23715;53.652;8.516;2023-07-31T17:09:54;77.60;;;72.67;;
37877;SDS011;23715;53.652;8.516;2023-07-31T17:14:55;82.42;;;77.27;;
37877;SDS011;23715;53.652;8.516;2023-07-31T17:19:55;77.10;;;72.40;;
37877;SDS011;23715;53.652;8.516;2023-07-31T17:24:58;79.17;;;74.17;;
37877;SDS011;23715;53.652;8.516;2023-07-31T17:29:58;80.10;;;75.00;;
37877;SDS011;23715;53.652;8.516;2023-07-31T17:34:59;78.55;;;73.35;;
37877;SDS011;23715;53.652;8.516;2023-07-31T17:39:59;74.45;;;69.55;;
37877;SDS011;23715;53.652;8.516;2023-07-31T17:44:59;74.20;;;69.35;;
37877;SDS011;23715;53.652;8.516;2023-07-31T17:50:06;78.60;;;73.55;;
37877;SDS011;23715;53.652;8.516;2023-07-31T17:55:07;82.95;;;77.37;;
37877;SDS011;23715;53.652;8.516;2023-07-31T18:00:11;88.67;;;82.80;;
37877;SDS011;23715;53.652;8.516;2023-07-31T18:05:11;82.33;;;76.97;;
37877;SDS011;23715;53.652;8.516;2023-07-31T18:10:12;88.67;;;82.70;;
37877;SDS011;23715;53.652;8.516;2023-07-31T18:15:12;89.50;;;83.70;;
37877;SDS011;23715;53.652;8.516;2023-07-31T18:20:17;86.37;;;81.05;;
37877;SDS011;23715;53.652;8.516;2023-07-31T18:25:14;90.95;;;84.92;;
37877;SDS011;23715;53.652;8.516;2023-07-31T18:30:14;87.15;;;81.63;;
37877;SDS011;23715;53.652;8.516;2023-07-31T18:40:16;84.30;;;78.95;;
37877;SDS011;23715;53.652;8.516;2023-07-31T18:45:16;89.50;;;83.72;;
37877;SDS011;23715;53.652;8.516;2023-07-31T18:50:16;81.65;;;76.40;;
37877;SDS011;23715;53.652;8.516;2023-07-31T18:55:17;79.05;;;74.05;;
37877;SDS011;23715;53.652;8.516;2023-07-31T19:00:17;80.55;;;75.57;;
37877;SDS011;23715;53.652;8.516;2023-07-31T19:05:17;79.17;;;73.70;;
37877;SDS011;23715;53.652;8.516;2023-07-31T19:10:19;74.53;;;69.60;;
37877;SDS011;23715;53.652;8.516;2023-07-31T19:15:20;73.10;;;68.28;;
37877;SDS011;23715;53.652;8.516;2023-07-31T19:20:20;81.35;;;75.65;;
37877;SDS011;23715;53.652;8.516;2023-07-31T19:25:20;75.65;;;70.47;;
37877;SDS011;23715;53.652;8.516;2023-07-31T19:30:22;75.73;;;70.93;;
37877;SDS011;23715;53.652;8.516;2023-07-31T19:35:22;80.50;;;75.05;;
37877;SDS011;23715;53.652;8.516;2023-07-31T19:40:26;81.40;;;76.00;;
37877;SDS011;23715;53.652;8.516;2023-07-31T19:45:26;79.47;;;74.58;;
37877;SDS011;23715;53.652;8.516;2023-07-31T19:50:28;82.33;;;77.10;;
37877;SDS011;23715;53.652;8.516;2023-07-31T19:55:28;80.28;;;75.10;;
37877;SDS011;23715;53.652;8.516;2023-07-31T20:00:30;81.78;;;76.87;;
37877;SDS011;23715;53.652;8.516;2023-07-31T20:10:30;76.33;;;71.30;;
37877;SDS011;23715;53.652;8.516;2023-07-31T20:15:30;81.22;;;76.40;;
37877;SDS011;23715;53.652;8.516;2023-07-31T20:20:34;83.67;;;78.67;;
37877;SDS011;23715;53.652;8.516;2023-07-31T20:25:37;81.12;;;75.92;;
37877;SDS011;23715;53.652;8.516;2023-07-31T20:30:43;81.12;;;76.12;;
37877;SDS011;23715;53.652;8.516;2023-07-31T20:35:39;82.92;;;77.70;;
37877;SDS011;23715;53.652;8.516;2023-07-31T20:40:39;79.77;;;74.93;;
37877;SDS011;23715;53.652;8.516;2023-07-31T20:45:40;83.90;;;78.65;;
37877;SDS011;23715;53.652;8.516;2023-07-31T20:50:40;80.12;;;75.12;;
37877;SDS011;23715;53.652;8.516;2023-07-31T20:55:41;84.13;;;79.12;;
37877;SDS011;23715;53.652;8.516;2023-07-31T21:00:41;80.45;;;75.67;;
37877;SDS011;23715;53.652;8.516;2023-07-31T21:05:50;80.94;;;76.14;;
37877;SDS011;23715;53.652;8.516;2023-07-31T21:10:51;74.40;;;69.80;;
37877;SDS011;23715;53.652;8.516;2023-07-31T21:15:55;76.20;;;71.55;;
37877;SDS011;23715;53.652;8.516;2023-07-31T21:20:59;78.55;;;73.78;;
37877;SDS011;23715;53.652;8.516;2023-07-31T21:25:59;78.13;;;73.43;;
37877;SDS011;23715;53.652;8.516;2023-07-31T21:31:07;78.97;;;74.07;;
37877;SDS011;23715;53.652;8.516;2023-07-31T21:36:12;75.32;;;70.90;;
37877;SDS011;23715;53.652;8.516;2023-07-31T21:46:15;74.80;;;70.37;;
37877;SDS011;23715;53.652;8.516;2023-07-31T21:51:17;76.40;;;71.77;;
37877;SDS011;23715;53.652;8.516;2023-07-31T21:56:17;78.35;;;73.30;;
37877;SDS011;23715;53.652;8.516;2023-07-31T22:01:17;73.85;;;69.47;;
37877;SDS011;23715;53.652;8.516;2023-07-31T22:06:17;78.67;;;74.05;;
37877;SDS011;23715;53.652;8.516;2023-07-31T22:11:18;80.92;;;76.22;;
37877;SDS011;23715;53.652;8.516;2023-07-31T22:16:19;82.55;;;77.78;;
37877;SDS011;23715;53.652;8.516;2023-07-31T22:21:19;83.97;;;78.78;;
37877;SDS011;23715;53.652;8.516;2023-07-31T22:26:19;84.22;;;79.30;;
37877;SDS011;23715;53.652;8.516;2023-07-31T22:31:20;82.40;;;77.60;;
37877;SDS011;23715;53.652;8.516;2023-07-31T22:41:20;82.37;;;77.47;;
37877;SDS011;23715;53.652;8.516;2023-07-31T22:46:20;75.05;;;70.55;;
37877;SDS011;23715;53.652;8.516;2023-07-31T22:56:20;73.40;;;68.90;;
37877;SDS011;23715;53.652;8.516;2023-07-31T23:01:20;71.70;;;67.30;;
37877;SDS011;23715;53.652;8.516;2023-07-31T23:06:20;73.60;;;68.90;;
37877;SDS011;23715;53.652;8.516;2023-07-31T23:11:22;74.15;;;69.55;;
37877;SDS011;23715;53.652;8.516;2023-07-31T23:16:22;74.45;;;69.50;;
37877;SDS011;23715;53.652;8.516;2023-07-31T23:21:22;75.10;;;70.60;;
37877;SDS011;23715;53.652;8.516;2023-07-31T23:26:22;79.17;;;74.27;;
37877;SDS011;23715;53.652;8.516;2023-07-31T23:31:23;80.47;;;75.75;;
37877;SDS011;23715;53.652;8.516;2023-07-31T23:41:23;79.82;;;75.17;;
37877;SDS011;23715;53.652;8.516;2023-07-31T23:46:23;80.65;;;75.35;;
37877;SDS011;23715;53.652;8.516;2023-07-31T23:56:23;78.72;;;73.85;;
